Buitenpost, Netherlands
Current Conditions -  °F | °C
As of 9:45 PM on Tuesday 25 Nov 2014 (Local Time) from EHLW Reporting Station
Haze Haze  
Wind Chill: 37°   Ceiling: 300
Heat Index: 43°   Visibility: 1.8mi
Dew Point: 43°   Wind: 12mph
Humidity: 100%   Direction: 100°E
Pressure: 30.21"   Gusts: NA
Location:  53.25°N, 6.14°E
Report Text: EHLW 252045Z AUTO 10010KT 2900 R23/P3000 BR OVC003 06/06 Q1023 YLO
Loading
Personal Weather Stations






























Interactive Weather Map New forecast layout! Learn more

10-Day Weather Forecast

Advertisements
Track Severe Weather on mobile